sensor_id;sensor_type;location;lat;lon;timestamp;pressure;altitude;pressure_sealevel;temperature;humidity
70254;BME280;57649;42.968;1.608;2023-02-17T00:00:21;98718.78;;;3.58;63.32
70254;BME280;57649;42.968;1.608;2023-02-17T00:02:46;98712.81;;;3.55;63.91
70254;BME280;57649;42.968;1.608;2023-02-17T00:05:13;98717.28;;;3.54;62.80
70254;BME280;57649;42.968;1.608;2023-02-17T00:07:38;98714.88;;;3.50;63.78
70254;BME280;57649;42.968;1.608;2023-02-17T00:10:05;98703.44;;;3.49;62.95
70254;BME280;57649;42.968;1.608;2023-02-17T00:12:30;98712.88;;;3.39;64.28
70254;BME280;57649;42.968;1.608;2023-02-17T00:14:56;98714.00;;;3.35;64.34
70254;BME280;57649;42.968;1.608;2023-02-17T00:17:22;98719.25;;;3.20;64.74
70254;BME280;57649;42.968;1.608;2023-02-17T00:19:47;98719.63;;;3.14;65.06
70254;BME280;57649;42.968;1.608;2023-02-17T00:22:12;98715.00;;;3.18;64.89
70254;BME280;57649;42.968;1.608;2023-02-17T00:24:39;98720.59;;;3.27;63.85
70254;BME280;57649;42.968;1.608;2023-02-17T00:27:05;98722.31;;;3.28;64.11
70254;BME280;57649;42.968;1.608;2023-02-17T00:29:31;98716.34;;;3.25;63.54
70254;BME280;57649;42.968;1.608;2023-02-17T00:31:57;98710.09;;;3.26;63.92
70254;BME280;57649;42.968;1.608;2023-02-17T00:34:23;98706.25;;;3.32;63.81
70254;BME280;57649;42.968;1.608;2023-02-17T00:36:48;98704.16;;;3.22;63.33
70254;BME280;57649;42.968;1.608;2023-02-17T00:39:15;98706.44;;;3.28;63.64
70254;BME280;57649;42.968;1.608;2023-02-17T00:41:41;98701.84;;;3.16;63.69
70254;BME280;57649;42.968;1.608;2023-02-17T00:44:06;98708.59;;;3.22;63.64
70254;BME280;57649;42.968;1.608;2023-02-17T00:46:32;98704.03;;;3.24;63.23
70254;BME280;57649;42.968;1.608;2023-02-17T00:48:57;98710.38;;;3.21;63.95
70254;BME280;57649;42.968;1.608;2023-02-17T00:51:23;98706.09;;;3.04;64.90
70254;BME280;57649;42.968;1.608;2023-02-17T00:53:49;98714.09;;;3.03;65.18
70254;BME280;57649;42.968;1.608;2023-02-17T00:56:15;98713.34;;;2.85;65.45
70254;BME280;57649;42.968;1.608;2023-02-17T00:58:41;98704.81;;;2.96;65.03
70254;BME280;57649;42.968;1.608;2023-02-17T01:01:08;98711.47;;;3.03;64.93
70254;BME280;57649;42.968;1.608;2023-02-17T01:03:34;98709.50;;;3.06;65.16
70254;BME280;57649;42.968;1.608;2023-02-17T01:06:05;98715.16;;;3.15;64.39
70254;BME280;57649;42.968;1.608;2023-02-17T01:08:30;98718.63;;;3.01;64.38
70254;BME280;57649;42.968;1.608;2023-02-17T01:10:56;98723.34;;;2.96;65.09
70254;BME280;57649;42.968;1.608;2023-02-17T01:13:21;98722.81;;;2.89;65.56
70254;BME280;57649;42.968;1.608;2023-02-17T01:15:51;98726.75;;;2.82;65.77
70254;BME280;57649;42.968;1.608;2023-02-17T01:18:18;98728.16;;;2.73;66.35
70254;BME280;57649;42.968;1.608;2023-02-17T01:20:45;98730.19;;;2.68;66.35
70254;BME280;57649;42.968;1.608;2023-02-17T01:23:11;98717.22;;;2.79;65.43
70254;BME280;57649;42.968;1.608;2023-02-17T01:25:44;98720.63;;;2.81;65.92
70254;BME280;57649;42.968;1.608;2023-02-17T01:28:19;98726.66;;;2.83;65.76
70254;BME280;57649;42.968;1.608;2023-02-17T01:30:45;98724.09;;;2.82;66.33
70254;BME280;57649;42.968;1.608;2023-02-17T01:33:11;98717.91;;;2.67;67.39
70254;BME280;57649;42.968;1.608;2023-02-17T01:35:36;98716.59;;;2.58;67.27
70254;BME280;57649;42.968;1.608;2023-02-17T01:38:02;98721.50;;;2.50;67.57
70254;BME280;57649;42.968;1.608;2023-02-17T01:40:27;98724.00;;;2.20;69.15
70254;BME280;57649;42.968;1.608;2023-02-17T01:42:54;98721.47;;;2.18;69.23
70254;BME280;57649;42.968;1.608;2023-02-17T01:50:17;98721.22;;;2.23;69.70
70254;BME280;57649;42.968;1.608;2023-02-17T01:52:45;98717.06;;;2.35;69.08
70254;BME280;57649;42.968;1.608;2023-02-17T01:55:14;98720.63;;;2.34;69.27
70254;BME280;57649;42.968;1.608;2023-02-17T01:57:41;98726.50;;;2.23;69.49
70254;BME280;57649;42.968;1.608;2023-02-17T02:00:09;98721.22;;;2.23;70.17
70254;BME280;57649;42.968;1.608;2023-02-17T02:02:36;98718.91;;;2.17;69.82
70254;BME280;57649;42.968;1.608;2023-02-17T02:05:02;98720.44;;;2.21;70.20
70254;BME280;57649;42.968;1.608;2023-02-17T02:07:33;98719.34;;;2.25;69.37
70254;BME280;57649;42.968;1.608;2023-02-17T02:09:59;98715.69;;;2.27;68.58
70254;BME280;57649;42.968;1.608;2023-02-17T02:12:30;98723.44;;;2.30;68.53
70254;BME280;57649;42.968;1.608;2023-02-17T02:14:59;98726.25;;;2.27;68.78
70254;BME280;57649;42.968;1.608;2023-02-17T02:22:42;98726.59;;;2.37;67.82
70254;BME280;57649;42.968;1.608;2023-02-17T02:25:38;98710.16;;;2.48;67.00
70254;BME280;57649;42.968;1.608;2023-02-17T02:34:17;98719.19;;;2.28;67.66
70254;BME280;57649;42.968;1.608;2023-02-17T02:36:50;98714.06;;;2.41;67.13
70254;BME280;57649;42.968;1.608;2023-02-17T02:39:19;98707.59;;;2.46;67.21
70254;BME280;57649;42.968;1.608;2023-02-17T02:41:52;98704.78;;;2.34;67.39
70254;BME280;57649;42.968;1.608;2023-02-17T02:44:20;98714.03;;;2.25;68.18
70254;BME280;57649;42.968;1.608;2023-02-17T02:47:03;98708.34;;;2.17;68.90
70254;BME280;57649;42.968;1.608;2023-02-17T02:49:30;98705.97;;;2.28;67.74
70254;BME280;57649;42.968;1.608;2023-02-17T03:02:50;98707.84;;;2.26;68.06
70254;BME280;57649;42.968;1.608;2023-02-17T03:07:57;98702.72;;;2.23;67.96
70254;BME280;57649;42.968;1.608;2023-02-17T03:10:24;98706.88;;;2.27;67.50
70254;BME280;57649;42.968;1.608;2023-02-17T03:12:49;98706.66;;;2.31;67.43
70254;BME280;57649;42.968;1.608;2023-02-17T03:15:21;98704.09;;;2.30;66.82
70254;BME280;57649;42.968;1.608;2023-02-17T03:17:49;98707.34;;;2.35;66.65
70254;BME280;57649;42.968;1.608;2023-02-17T03:20:14;98709.81;;;2.38;66.86
70254;BME280;57649;42.968;1.608;2023-02-17T03:22:44;98710.13;;;2.32;66.77
70254;BME280;57649;42.968;1.608;2023-02-17T03:25:10;98709.13;;;2.35;67.49
70254;BME280;57649;42.968;1.608;2023-02-17T03:27:35;98721.47;;;2.18;68.35
70254;BME280;57649;42.968;1.608;2023-02-17T03:30:01;98708.34;;;2.17;68.20
70254;BME280;57649;42.968;1.608;2023-02-17T03:32:27;98709.34;;;2.14;67.85
70254;BME280;57649;42.968;1.608;2023-02-17T03:34:52;98708.50;;;2.14;67.91
70254;BME280;57649;42.968;1.608;2023-02-17T03:37:17;98706.97;;;2.09;68.56
70254;BME280;57649;42.968;1.608;2023-02-17T03:39:43;98715.16;;;2.21;67.93
70254;BME280;57649;42.968;1.608;2023-02-17T03:42:08;98713.63;;;2.17;67.58
70254;BME280;57649;42.968;1.608;2023-02-17T03:44:34;98711.06;;;2.15;68.41
70254;BME280;57649;42.968;1.608;2023-02-17T03:46:59;98712.25;;;2.09;68.37
70254;BME280;57649;42.968;1.608;2023-02-17T03:49:25;98705.75;;;1.99;68.47
70254;BME280;57649;42.968;1.608;2023-02-17T03:51:50;98715.81;;;1.92;69.41
70254;BME280;57649;42.968;1.608;2023-02-17T03:54:16;98715.63;;;1.96;69.22
70254;BME280;57649;42.968;1.608;2023-02-17T03:56:41;98710.59;;;1.91;68.99
70254;BME280;57649;42.968;1.608;2023-02-17T03:59:07;98720.47;;;1.87;69.54
70254;BME280;57649;42.968;1.608;2023-02-17T04:01:32;98714.81;;;1.78;70.16
70254;BME280;57649;42.968;1.608;2023-02-17T04:03:58;98715.41;;;1.83;70.01
70254;BME280;57649;42.968;1.608;2023-02-17T04:06:23;98719.84;;;1.82;69.61
70254;BME280;57649;42.968;1.608;2023-02-17T04:08:48;98708.88;;;1.90;67.89
70254;BME280;57649;42.968;1.608;2023-02-17T04:11:14;98718.31;;;2.11;67.30
70254;BME280;57649;42.968;1.608;2023-02-17T04:13:39;98709.44;;;2.13;66.49
70254;BME280;57649;42.968;1.608;2023-02-17T04:16:06;98718.31;;;2.11;67.38
70254;BME280;57649;42.968;1.608;2023-02-17T04:18:32;98720.31;;;2.06;67.22
70254;BME280;57649;42.968;1.608;2023-02-17T04:20:58;98722.75;;;2.11;67.06
70254;BME280;57649;42.968;1.608;2023-02-17T04:23:23;98720.59;;;2.18;66.75
70254;BME280;57649;42.968;1.608;2023-02-17T04:25:49;98713.34;;;2.05;67.28
70254;BME280;57649;42.968;1.608;2023-02-17T04:28:15;98717.38;;;2.13;66.84
70254;BME280;57649;42.968;1.608;2023-02-17T04:30:45;98725.19;;;2.14;67.08
70254;BME280;57649;42.968;1.608;2023-02-17T04:33:11;98730.66;;;2.11;67.35
70254;BME280;57649;42.968;1.608;2023-02-17T04:35:37;98737.28;;;2.02;67.72
70254;BME280;57649;42.968;1.608;2023-02-17T04:38:03;98727.50;;;2.04;67.64
70254;BME280;57649;42.968;1.608;2023-02-17T04:40:29;98728.59;;;2.00;67.62
70254;BME280;57649;42.968;1.608;2023-02-17T04:42:55;98731.84;;;2.05;67.39
70254;BME280;57649;42.968;1.608;2023-02-17T04:45:21;98731.31;;;1.99;67.87
70254;BME280;57649;42.968;1.608;2023-02-17T04:47:46;98726.19;;;1.96;67.45
70254;BME280;57649;42.968;1.608;2023-02-17T04:50:12;98726.47;;;2.07;67.05
70254;BME280;57649;42.968;1.608;2023-02-17T04:52:37;98726.88;;;1.99;67.49
70254;BME280;57649;42.968;1.608;2023-02-17T04:55:04;98716.91;;;2.04;67.35
70254;BME280;57649;42.968;1.608;2023-02-17T04:57:29;98738.47;;;1.97;67.69
70254;BME280;57649;42.968;1.608;2023-02-17T04:59:55;98730.78;;;1.92;68.22
70254;BME280;57649;42.968;1.608;2023-02-17T05:02:20;98733.59;;;1.89;67.73
70254;BME280;57649;42.968;1.608;2023-02-17T05:04:45;98723.53;;;1.80;68.10
70254;BME280;57649;42.968;1.608;2023-02-17T05:07:11;98726.84;;;1.83;67.93
70254;BME280;57649;42.968;1.608;2023-02-17T05:09:36;98735.28;;;1.90;68.08
70254;BME280;57649;42.968;1.608;2023-02-17T05:12:02;98723.19;;;1.86;68.16
70254;BME280;57649;42.968;1.608;2023-02-17T05:14:29;98734.16;;;1.78;68.72
70254;BME280;57649;42.968;1.608;2023-02-17T05:16:55;98730.69;;;1.60;69.48
70254;BME280;57649;42.968;1.608;2023-02-17T05:19:20;98732.16;;;1.66;69.60
70254;BME280;57649;42.968;1.608;2023-02-17T05:21:46;98728.41;;;1.70;68.74
70254;BME280;57649;42.968;1.608;2023-02-17T05:24:11;98727.50;;;1.71;68.69
70254;BME280;57649;42.968;1.608;2023-02-17T05:26:36;98728.41;;;1.70;68.58
70254;BME280;57649;42.968;1.608;2023-02-17T05:29:02;98728.63;;;1.83;67.47
70254;BME280;57649;42.968;1.608;2023-02-17T05:31:27;98730.97;;;1.89;66.98
70254;BME280;57649;42.968;1.608;2023-02-17T05:33:54;98729.00;;;1.92;67.85
70254;BME280;57649;42.968;1.608;2023-02-17T05:36:19;98728.31;;;1.89;67.67
70254;BME280;57649;42.968;1.608;2023-02-17T05:38:45;98728.13;;;1.92;67.18
70254;BME280;57649;42.968;1.608;2023-02-17T05:41:17;98717.00;;;2.03;66.78
70254;BME280;57649;42.968;1.608;2023-02-17T05:43:43;98734.66;;;1.85;68.30
70254;BME280;57649;42.968;1.608;2023-02-17T05:46:08;98725.97;;;1.83;68.01
70254;BME280;57649;42.968;1.608;2023-02-17T05:48:33;98728.00;;;1.78;68.52
70254;BME280;57649;42.968;1.608;2023-02-17T05:50:59;98734.16;;;1.78;68.50
70254;BME280;57649;42.968;1.608;2023-02-17T05:53:25;98733.38;;;1.76;68.93
70254;BME280;57649;42.968;1.608;2023-02-17T05:55:50;98730.34;;;1.66;69.04
70254;BME280;57649;42.968;1.608;2023-02-17T05:58:16;98740.91;;;1.66;69.15
70254;BME280;57649;42.968;1.608;2023-02-17T06:00:41;98724.59;;;1.76;69.06
70254;BME280;57649;42.968;1.608;2023-02-17T06:03:07;98720.75;;;1.65;69.15
70254;BME280;57649;42.968;1.608;2023-02-17T06:05:32;98737.91;;;1.74;68.27
70254;BME280;57649;42.968;1.608;2023-02-17T06:07:58;98727.78;;;1.65;68.98
70254;BME280;57649;42.968;1.608;2023-02-17T06:10:23;98738.97;;;1.70;68.39
70254;BME280;57649;42.968;1.608;2023-02-17T06:12:49;98734.84;;;1.82;67.38
70254;BME280;57649;42.968;1.608;2023-02-17T06:15:14;98734.78;;;1.83;68.27
70254;BME280;57649;42.968;1.608;2023-02-17T06:17:40;98738.66;;;1.76;68.00
70254;BME280;57649;42.968;1.608;2023-02-17T06:20:07;98751.47;;;1.66;68.99
70254;BME280;57649;42.968;1.608;2023-02-17T06:22:33;98749.72;;;1.67;69.96
70254;BME280;57649;42.968;1.608;2023-02-17T06:24:59;98756.47;;;1.55;70.61
70254;BME280;57649;42.968;1.608;2023-02-17T06:27:24;98740.09;;;1.31;70.71
70254;BME280;57649;42.968;1.608;2023-02-17T06:29:50;98741.00;;;1.30;70.89
70254;BME280;57649;42.968;1.608;2023-02-17T06:32:15;98749.09;;;1.27;71.21
70254;BME280;57649;42.968;1.608;2023-02-17T06:34:41;98745.28;;;1.50;69.40
70254;BME280;57649;42.968;1.608;2023-02-17T06:37:06;98746.53;;;1.60;69.12
70254;BME280;57649;42.968;1.608;2023-02-17T06:39:32;98738.91;;;1.71;67.83
70254;BME280;57649;42.968;1.608;2023-02-17T06:41:57;98736.72;;;1.80;67.37
70254;BME280;57649;42.968;1.608;2023-02-17T06:44:23;98753.84;;;1.88;66.93
70254;BME280;57649;42.968;1.608;2023-02-17T06:46:48;98749.25;;;1.92;67.09
70254;BME280;57649;42.968;1.608;2023-02-17T06:49:14;98747.84;;;2.02;67.75
70254;BME280;57649;42.968;1.608;2023-02-17T06:51:39;98757.94;;;1.94;67.68
70254;BME280;57649;42.968;1.608;2023-02-17T06:54:05;98758.28;;;1.88;68.65
70254;BME280;57649;42.968;1.608;2023-02-17T06:56:30;98769.09;;;1.83;70.16
70254;BME280;57649;42.968;1.608;2023-02-17T06:58:55;98777.09;;;1.82;69.63
70254;BME280;57649;42.968;1.608;2023-02-17T07:01:25;98760.81;;;1.56;70.16
70254;BME280;57649;42.968;1.608;2023-02-17T07:03:52;98775.19;;;1.50;70.66
70254;BME280;57649;42.968;1.608;2023-02-17T07:06:17;98777.88;;;1.31;71.27
70254;BME280;57649;42.968;1.608;2023-02-17T07:08:43;98774.47;;;1.29;71.59
70254;BME280;57649;42.968;1.608;2023-02-17T07:11:10;98777.97;;;1.47;70.41
70254;BME280;57649;42.968;1.608;2023-02-17T07:13:36;98776.78;;;1.35;70.98
70254;BME280;57649;42.968;1.608;2023-02-17T07:16:02;98788.13;;;1.38;71.55
70254;BME280;57649;42.968;1.608;2023-02-17T07:18:28;98799.16;;;1.28;71.52
70254;BME280;57649;42.968;1.608;2023-02-17T07:20:53;98788.59;;;1.28;71.83
70254;BME280;57649;42.968;1.608;2023-02-17T07:23:18;98792.63;;;1.35;70.96
70254;BME280;57649;42.968;1.608;2023-02-17T07:25:44;98783.63;;;1.57;69.13
70254;BME280;57649;42.968;1.608;2023-02-17T07:28:09;98791.25;;;1.63;68.68
70254;BME280;57649;42.968;1.608;2023-02-17T07:30:39;98791.84;;;1.68;69.30
70254;BME280;57649;42.968;1.608;2023-02-17T07:33:05;98786.41;;;1.71;68.56
70254;BME280;57649;42.968;1.608;2023-02-17T07:35:31;98796.00;;;1.74;69.09
70254;BME280;57649;42.968;1.608;2023-02-17T07:37:57;98801.50;;;1.87;68.11
70254;BME280;57649;42.968;1.608;2023-02-17T07:40:23;98799.44;;;1.92;68.91
70254;BME280;57649;42.968;1.608;2023-02-17T07:42:48;98800.38;;;1.91;68.44
70254;BME280;57649;42.968;1.608;2023-02-17T07:45:14;98789.78;;;2.08;68.72
70254;BME280;57649;42.968;1.608;2023-02-17T07:47:39;98798.47;;;2.10;68.12
70254;BME280;57649;42.968;1.608;2023-02-17T07:50:05;98802.50;;;2.18;68.07
70254;BME280;57649;42.968;1.608;2023-02-17T07:52:31;98801.78;;;2.31;67.21
70254;BME280;57649;42.968;1.608;2023-02-17T07:54:56;98800.09;;;2.46;68.22
70254;BME280;57649;42.968;1.608;2023-02-17T07:57:22;98790.38;;;2.31;69.30
70254;BME280;57649;42.968;1.608;2023-02-17T07:59:47;98803.28;;;2.20;69.18
70254;BME280;57649;42.968;1.608;2023-02-17T08:02:12;98806.22;;;2.31;69.10
70254;BME280;57649;42.968;1.608;2023-02-17T08:04:38;98804.78;;;2.41;68.71
70254;BME280;57649;42.968;1.608;2023-02-17T08:07:03;98802.50;;;2.51;67.46
70254;BME280;57649;42.968;1.608;2023-02-17T08:09:29;98802.50;;;2.67;67.49
70254;BME280;57649;42.968;1.608;2023-02-17T08:12:17;98812.59;;;2.92;65.48
70254;BME280;57649;42.968;1.608;2023-02-17T08:15:03;98811.22;;;3.01;65.23
70254;BME280;57649;42.968;1.608;2023-02-17T08:17:30;98816.16;;;3.23;64.04
70254;BME280;57649;42.968;1.608;2023-02-17T08:19:55;98807.38;;;3.22;64.77
70254;BME280;57649;42.968;1.608;2023-02-17T08:22:21;98820.09;;;3.32;65.07
70254;BME280;57649;42.968;1.608;2023-02-17T08:24:46;98812.53;;;3.40;65.11
70254;BME280;57649;42.968;1.608;2023-02-17T08:27:15;98803.47;;;3.44;64.05
70254;BME280;57649;42.968;1.608;2023-02-17T08:29:41;98816.09;;;3.55;63.53
70254;BME280;57649;42.968;1.608;2023-02-17T08:32:07;98809.25;;;3.66;62.78
70254;BME280;57649;42.968;1.608;2023-02-17T08:34:33;98810.38;;;3.77;62.56
70254;BME280;57649;42.968;1.608;2023-02-17T08:37:04;98814.16;;;4.03;61.63
70254;BME280;57649;42.968;1.608;2023-02-17T08:39:29;98808.75;;;4.19;61.50
70254;BME280;57649;42.968;1.608;2023-02-17T08:41:55;98802.13;;;4.26;61.15
70254;BME280;57649;42.968;1.608;2023-02-17T08:44:20;98812.16;;;4.35;60.86
70254;BME280;57649;42.968;1.608;2023-02-17T08:46:47;98811.81;;;4.41;60.09
70254;BME280;57649;42.968;1.608;2023-02-17T08:49:14;98817.88;;;4.58;59.54
70254;BME280;57649;42.968;1.608;2023-02-17T08:51:40;98811.97;;;4.67;59.55
70254;BME280;57649;42.968;1.608;2023-02-17T08:54:07;98817.66;;;4.75;58.38
70254;BME280;57649;42.968;1.608;2023-02-17T08:56:36;98814.59;;;4.81;57.32
70254;BME280;57649;42.968;1.608;2023-02-17T08:59:03;98812.31;;;4.90;57.31
70254;BME280;57649;42.968;1.608;2023-02-17T09:01:29;98813.59;;;5.11;55.57
70254;BME280;57649;42.968;1.608;2023-02-17T09:03:56;98810.78;;;5.27;55.21
70254;BME280;57649;42.968;1.608;2023-02-17T09:06:23;98808.34;;;5.51;55.37
70254;BME280;57649;42.968;1.608;2023-02-17T09:08:49;98806.63;;;5.50;56.39
70254;BME280;57649;42.968;1.608;2023-02-17T09:11:16;98807.50;;;5.64;55.93
70254;BME280;57649;42.968;1.608;2023-02-17T09:13:44;98812.94;;;5.75;55.13
70254;BME280;57649;42.968;1.608;2023-02-17T09:16:09;98806.72;;;5.89;55.11
70254;BME280;57649;42.968;1.608;2023-02-17T09:18:35;98810.69;;;6.09;55.53
70254;BME280;57649;42.968;1.608;2023-02-17T09:21:09;98818.16;;;6.29;53.86
70254;BME280;57649;42.968;1.608;2023-02-17T09:23:35;98808.88;;;6.35;52.76
70254;BME280;57649;42.968;1.608;2023-02-17T09:26:05;98813.13;;;6.63;51.68
70254;BME280;57649;42.968;1.608;2023-02-17T09:28:32;98811.91;;;6.93;50.38
70254;BME280;57649;42.968;1.608;2023-02-17T09:30:58;98805.41;;;7.21;49.69
70254;BME280;57649;42.968;1.608;2023-02-17T09:33:23;98810.47;;;7.37;49.87
70254;BME280;57649;42.968;1.608;2023-02-17T09:35:49;98807.88;;;7.60;49.78
70254;BME280;57649;42.968;1.608;2023-02-17T09:38:15;98808.75;;;7.96;48.20
70254;BME280;57649;42.968;1.608;2023-02-17T09:40:44;98801.53;;;8.20;48.29
70254;BME280;57649;42.968;1.608;2023-02-17T09:43:21;98811.78;;;8.49;46.27
70254;BME280;57649;42.968;1.608;2023-02-17T09:45:51;98803.16;;;8.91;45.52
70254;BME280;57649;42.968;1.608;2023-02-17T09:48:21;98798.09;;;9.31;44.75
70254;BME280;57649;42.968;1.608;2023-02-17T09:50:59;98809.78;;;9.62;44.36
70254;BME280;57649;42.968;1.608;2023-02-17T09:53:40;98807.50;;;10.00;42.46
70254;BME280;57649;42.968;1.608;2023-02-17T09:56:14;98808.72;;;10.28;42.90
70254;BME280;57649;42.968;1.608;2023-02-17T09:58:54;98811.22;;;10.72;41.43
70254;BME280;57649;42.968;1.608;2023-02-17T10:01:27;98811.56;;;10.88;40.51
70254;BME280;57649;42.968;1.608;2023-02-17T10:06:30;98817.59;;;11.31;39.79
70254;BME280;57649;42.968;1.608;2023-02-17T10:11:32;98817.38;;;11.73;39.21
70254;BME280;57649;42.968;1.608;2023-02-17T10:14:03;98817.09;;;11.76;39.15
70254;BME280;57649;42.968;1.608;2023-02-17T10:16:37;98813.69;;;11.84;38.16
70254;BME280;57649;42.968;1.608;2023-02-17T10:19:13;98816.00;;;11.98;38.10
70254;BME280;57649;42.968;1.608;2023-02-17T10:21:51;98815.66;;;12.21;37.60
70254;BME280;57649;42.968;1.608;2023-02-17T10:24:21;98810.44;;;12.19;37.84
70254;BME280;57649;42.968;1.608;2023-02-17T10:27:09;98814.50;;;12.43;38.34
70254;BME280;57649;42.968;1.608;2023-02-17T10:32:40;98807.06;;;12.64;37.91
70254;BME280;57649;42.968;1.608;2023-02-17T10:35:42;98805.81;;;12.96;37.11
70254;BME280;57649;42.968;1.608;2023-02-17T10:38:18;98812.19;;;13.23;36.32
70254;BME280;57649;42.968;1.608;2023-02-17T10:40:53;98802.22;;;13.33;36.20
70254;BME280;57649;42.968;1.608;2023-02-17T10:43:24;98809.00;;;13.37;36.57
70254;BME280;57649;42.968;1.608;2023-02-17T10:45:51;98814.31;;;13.47;36.73
70254;BME280;57649;42.968;1.608;2023-02-17T10:48:23;98804.56;;;13.64;36.07
70254;BME280;57649;42.968;1.608;2023-02-17T10:50:53;98808.81;;;13.66;36.20
70254;BME280;57649;42.968;1.608;2023-02-17T10:53:38;98812.66;;;13.82;35.79
70254;BME280;57649;42.968;1.608;2023-02-17T10:58:57;98796.50;;;14.00;35.25
70254;BME280;57649;42.968;1.608;2023-02-17T11:01:24;98784.50;;;14.20;34.61
70254;BME280;57649;42.968;1.608;2023-02-17T11:03:59;98785.69;;;14.44;34.50
70254;BME280;57649;42.968;1.608;2023-02-17T11:06:25;98782.31;;;14.68;33.84
70254;BME280;57649;42.968;1.608;2023-02-17T11:08:57;98783.16;;;14.69;33.88
70254;BME280;57649;42.968;1.608;2023-02-17T11:11:28;98782.47;;;14.67;34.06
70254;BME280;57649;42.968;1.608;2023-02-17T11:16:44;98785.22;;;15.09;34.07
70254;BME280;57649;42.968;1.608;2023-02-17T11:19:31;98770.59;;;15.28;34.05
70254;BME280;57649;42.968;1.608;2023-02-17T11:22:03;98765.25;;;15.69;34.63
70254;BME280;57649;42.968;1.608;2023-02-17T11:24:30;98759.22;;;15.75;34.60
70254;BME280;57649;42.968;1.608;2023-02-17T11:26:59;98759.53;;;15.97;34.97
70254;BME280;57649;42.968;1.608;2023-02-17T11:29:26;98752.31;;;15.97;35.46
70254;BME280;57649;42.968;1.608;2023-02-17T11:31:55;98746.72;;;16.07;35.77
70254;BME280;57649;42.968;1.608;2023-02-17T11:34:25;98746.22;;;15.87;37.65
70254;BME280;57649;42.968;1.608;2023-02-17T11:39:43;98741.84;;;15.78;37.26
70254;BME280;57649;42.968;1.608;2023-02-17T11:42:31;98738.63;;;15.99;37.43
70254;BME280;57649;42.968;1.608;2023-02-17T11:44:59;98733.22;;;15.99;37.00
70254;BME280;57649;42.968;1.608;2023-02-17T11:52:27;98712.25;;;16.09;37.08
70254;BME280;57649;42.968;1.608;2023-02-17T11:55:12;98711.44;;;16.09;37.05
70254;BME280;57649;42.968;1.608;2023-02-17T12:00:35;98712.81;;;15.88;37.45
70254;BME280;57649;42.968;1.608;2023-02-17T12:25:58;98677.25;;;16.80;37.25
70254;BME280;57649;42.968;1.608;2023-02-17T12:34:33;98668.53;;;17.01;37.04
70254;BME280;57649;42.968;1.608;2023-02-17T12:37:04;98661.31;;;16.54;37.60
70254;BME280;57649;42.968;1.608;2023-02-17T12:39:40;98659.47;;;16.46;37.85
70254;BME280;57649;42.968;1.608;2023-02-17T12:42:13;98649.47;;;16.55;38.01
70254;BME280;57649;42.968;1.608;2023-02-17T12:44:43;98647.72;;;16.23;38.24
70254;BME280;57649;42.968;1.608;2023-02-17T12:47:14;98644.56;;;16.11;38.66
70254;BME280;57649;42.968;1.608;2023-02-17T12:49:55;98650.00;;;15.94;39.55
70254;BME280;57649;42.968;1.608;2023-02-17T12:52:32;98642.53;;;16.13;38.93
70254;BME280;57649;42.968;1.608;2023-02-17T12:55:13;98639.38;;;16.49;38.82
70254;BME280;57649;42.968;1.608;2023-02-17T12:57:54;98633.66;;;16.35;38.53
70254;BME280;57649;42.968;1.608;2023-02-17T13:03:29;98621.63;;;16.07;39.28
70254;BME280;57649;42.968;1.608;2023-02-17T13:06:02;98624.22;;;16.31;39.82
70254;BME280;57649;42.968;1.608;2023-02-17T13:08:48;98623.56;;;16.29;39.27
70254;BME280;57649;42.968;1.608;2023-02-17T13:13:51;98618.81;;;16.31;39.18
70254;BME280;57649;42.968;1.608;2023-02-17T13:16:17;98606.63;;;16.44;39.22
70254;BME280;57649;42.968;1.608;2023-02-17T13:18:45;98604.38;;;16.16;39.01
70254;BME280;57649;42.968;1.608;2023-02-17T13:24:02;98598.13;;;16.15;40.21
70254;BME280;57649;42.968;1.608;2023-02-17T13:26:36;98599.78;;;16.25;40.12
70254;BME280;57649;42.968;1.608;2023-02-17T13:34:30;98588.56;;;16.05;40.14
70254;BME280;57649;42.968;1.608;2023-02-17T13:36:57;98586.34;;;16.08;40.04
70254;BME280;57649;42.968;1.608;2023-02-17T13:41:53;98573.88;;;15.99;38.37
70254;BME280;57649;42.968;1.608;2023-02-17T13:47:16;98564.75;;;16.40;40.04
70254;BME280;57649;42.968;1.608;2023-02-17T13:49:51;98572.50;;;16.43;39.06
70254;BME280;57649;42.968;1.608;2023-02-17T13:52:26;98567.63;;;16.38;38.37
70254;BME280;57649;42.968;1.608;2023-02-17T13:55:04;98570.56;;;16.28;38.15
70254;BME280;57649;42.968;1.608;2023-02-17T13:57:32;98568.63;;;16.37;38.54
70254;BME280;57649;42.968;1.608;2023-02-17T14:08:04;98558.47;;;16.47;39.29
70254;BME280;57649;42.968;1.608;2023-02-17T14:10:31;98552.59;;;16.67;39.01
70254;BME280;57649;42.968;1.608;2023-02-17T14:12:57;98554.88;;;16.55;39.41
70254;BME280;57649;42.968;1.608;2023-02-17T14:15:26;98560.09;;;16.57;39.84
70254;BME280;57649;42.968;1.608;2023-02-17T14:17:52;98556.09;;;16.44;39.69
70254;BME280;57649;42.968;1.608;2023-02-17T14:20:30;98560.25;;;16.24;39.97
70254;BME280;57649;42.968;1.608;2023-02-17T14:23:03;98557.41;;;16.17;41.32
70254;BME280;57649;42.968;1.608;2023-02-17T14:25:32;98560.34;;;16.47;42.01
70254;BME280;57649;42.968;1.608;2023-02-17T14:27:58;98553.00;;;16.24;41.55
70254;BME280;57649;42.968;1.608;2023-02-17T14:30:37;98558.31;;;16.41;42.37
70254;BME280;57649;42.968;1.608;2023-02-17T14:33:06;98551.00;;;16.49;41.61
70254;BME280;57649;42.968;1.608;2023-02-17T14:35:33;98548.81;;;16.45;41.19
70254;BME280;57649;42.968;1.608;2023-02-17T14:38:19;98547.59;;;16.24;41.88
70254;BME280;57649;42.968;1.608;2023-02-17T14:40:45;98558.41;;;16.24;42.21
70254;BME280;57649;42.968;1.608;2023-02-17T14:43:11;98552.72;;;16.11;42.75
70254;BME280;57649;42.968;1.608;2023-02-17T14:45:36;98545.47;;;16.11;43.08
70254;BME280;57649;42.968;1.608;2023-02-17T14:48:01;98547.38;;;16.03;42.98
70254;BME280;57649;42.968;1.608;2023-02-17T14:50:27;98546.00;;;16.07;43.07
70254;BME280;57649;42.968;1.608;2023-02-17T14:52:52;98542.44;;;16.06;43.34
70254;BME280;57649;42.968;1.608;2023-02-17T14:57:51;98542.41;;;16.14;43.09
70254;BME280;57649;42.968;1.608;2023-02-17T15:00:16;98548.44;;;16.25;42.93
70254;BME280;57649;42.968;1.608;2023-02-17T15:02:42;98545.94;;;16.23;43.12
70254;BME280;57649;42.968;1.608;2023-02-17T15:05:07;98537.75;;;16.31;43.07